Thunder radar more information blitzortung!


Radar de pluja more information rain snow radar


Visita la nostra xarxa de llocs de meteo:

Template documentation
and downloads

And another site



No particular awareness of the weather is required.    There are no Weather-warnings

Pagina Historial Weather Underground text

Diari Resum Juny 22, 2016 Unitats:  Mètric    Imperial   Tant
« Previous Dia
SegĂźent Dia »
Diari Setmana Mensual Anual Personalitzada
  Maxima: Minima: Media:
Temperatura: 33.1 °C 16.7 °C 26 °C
Punt de rosada: 13.5 °C 2.7 °C 8.1 °C
Humitat: 54 % 25 % 33 %
Wind Speed: 24.1 km/h 0.0 km/h 8.1 km/h
RĂ fegues de vent: 24.1 km/h - -
Vent:- - SW
Pression baro: 1020.9 hPa 1016.8 hPa -
Precipitacions: 0.0 mm    
Historical Graphs
 
 
Dades de taula per Juny 22, 2016
Temps Temperatura Punt de rosada Pression baro Vent Wind Speed RĂ fegues de vent Humitat Rainfall Rate (Hourly)
00:00 19.2 °C 8.8 °C 1019.9 hPa Calm   3.2 km/h 51 % 0.0 mm
00:03 20.9 °C 10.1 °C 1019.9 hPa West 4.7 km/h 4.7 km/h 50 % 0.0 mm
00:10 19.0 °C 8.6 °C 1019.9 hPa Calm   1.6 km/h 51 % 0.0 mm
00:20 18.7 °C 8.6 °C 1018.8 hPa Calm   3.2 km/h 52 % 0.0 mm
00:30 18.3 °C 8.3 °C 1019.9 hPa Calm     52 % 0.0 mm
00:40 18.0 °C 8.0 °C 1019.9 hPa Calm     52 % 0.0 mm
00:50 17.7 °C 8.0 °C 1019.9 hPa Calm     53 % 0.0 mm
01:00 17.7 °C 8.0 °C 1018.8 hPa Calm     53 % 0.0 mm
01:10 17.7 °C 8.0 °C 1018.8 hPa Calm   3.2 km/h 53 % 0.0 mm
01:20 17.6 °C 7.9 °C 1019.9 hPa SW 1.6 km/h 3.2 km/h 53 % 0.0 mm
01:30 17.3 °C 7.6 °C 1019.9 hPa SW 1.6 km/h 3.2 km/h 53 % 0.0 mm
01:40 17.1 °C 7.7 °C 1019.9 hPa SW 1.6 km/h 3.2 km/h 54 % 0.0 mm
01:50 17.2 °C 7.6 °C 1019.9 hPa SW 1.6 km/h 3.2 km/h 53 % 0.0 mm
02:10 17.4 °C 8.0 °C 1019.9 hPa Calm   3.2 km/h 54 % 0.0 mm
02:20 17.5 °C 8.1 °C 1019.9 hPa SW 3.2 km/h 4.8 km/h 54 % 0.0 mm
02:30 18.0 °C 8.6 °C 1019.9 hPa SW 1.6 km/h 4.8 km/h 54 % 0.0 mm
02:40 18.7 °C 9.2 °C 1019.9 hPa WSW 1.6 km/h 1.6 km/h 54 % 0.0 mm
02:50 20.0 °C 9.8 °C 1019.9 hPa WSW 1.6 km/h 1.6 km/h 52 % 0.0 mm
03:00 20.6 °C 10.1 °C 1019.9 hPa WSW 1.6 km/h 1.6 km/h 51 % 0.0 mm
03:10 20.8 °C 10.3 °C 1019.9 hPa WSW 1.6 km/h 1.6 km/h 51 % 0.0 mm
03:20 21.5 °C 10.3 °C 1019.9 hPa WSW 1.6 km/h 1.6 km/h 49 % 0.0 mm
03:30 21.9 °C 10.7 °C 1019.9 hPa WSW 1.6 km/h 1.6 km/h 49 % 0.0 mm
03:40 22.5 °C 10.9 °C 1019.9 hPa WSW 1.6 km/h 1.6 km/h 48 % 0.0 mm
03:50 22.8 °C 10.9 °C 1020.9 hPa WSW 1.6 km/h 1.6 km/h 47 % 0.0 mm
04:00 23.1 °C 10.5 °C 1019.9 hPa WSW 4.8 km/h 4.8 km/h 45 % 0.0 mm
04:10 23.7 °C 10.7 °C 1019.9 hPa WSW 1.6 km/h 4.8 km/h 44 % 0.0 mm
04:20 24.1 °C 10.7 °C 1019.9 hPa SW 1.6 km/h 4.8 km/h 43 % 0.0 mm
04:30 24.6 °C 10.4 °C 1020.9 hPa SW 4.8 km/h 6.4 km/h 41 % 0.0 mm
04:40 24.8 °C 10.3 °C 1020.9 hPa SW 8.0 km/h 9.7 km/h 40 % 0.0 mm
04:50 25.2 °C 10.3 °C 1020.9 hPa SW 8.0 km/h 8.0 km/h 39 % 0.0 mm
05:00 25.4 °C 10.1 °C 1020.9 hPa SW 8.0 km/h 8.0 km/h 38 % 0.0 mm
05:10 25.7 °C 10.3 °C 1020.9 hPa SW 4.8 km/h 9.7 km/h 38 % 0.0 mm
05:20 26.3 °C 10.8 °C 1019.9 hPa SW 4.8 km/h 8.0 km/h 38 % 0.0 mm
05:30 26.9 °C 11.4 °C 1019.9 hPa WSW 4.8 km/h 6.4 km/h 38 % 0.0 mm
05:40 27.1 °C 10.3 °C 1019.9 hPa WSW 4.8 km/h 11.3 km/h 35 % 0.0 mm
05:50 27.4 °C 10.6 °C 1019.9 hPa WSW 8.0 km/h 11.3 km/h 35 % 0.0 mm
06:00 28.2 °C 10.8 °C 1019.9 hPa WSW 8.0 km/h 11.3 km/h 34 % 0.0 mm
06:10 28.2 °C 10.4 °C 1019.9 hPa SW 8.0 km/h 11.3 km/h 33 % 0.0 mm
06:20 28.9 °C 11.0 °C 1019.9 hPa SSW 4.8 km/h 4.8 km/h 33 % 0.0 mm
06:30 29.1 °C 10.2 °C 1020.9 hPa South 4.8 km/h 4.8 km/h 31 % 0.0 mm
06:40 29.0 °C 9.7 °C 1020.9 hPa SE 4.8 km/h 4.8 km/h 30 % 0.0 mm
06:50 29.4 °C 10.0 °C 1019.9 hPa ESE 4.8 km/h 4.8 km/h 30 % 0.0 mm
07:00 29.8 °C 10.8 °C 1019.9 hPa SE 3.2 km/h 9.7 km/h 31 % 0.0 mm
07:10 29.3 °C 11.8 °C 1019.9 hPa SSW 3.2 km/h 6.4 km/h 34 % 0.0 mm
07:20 29.5 °C 12.8 °C 1019.9 hPa SW 8.0 km/h 9.7 km/h 36 % 0.0 mm
07:30 30.1 °C 12.9 °C 1019.9 hPa SW 8.0 km/h 8.0 km/h 35 % 0.0 mm
07:40 30.7 °C 13.5 °C 1019.9 hPa SSW 1.6 km/h 12.9 km/h 35 % 0.0 mm
07:50 30.0 °C 12.4 °C 1019.9 hPa SSW 11.3 km/h 12.9 km/h 34 % 0.0 mm
07:55 30.2 °C 12.2 °C 1019.9 hPa SW 11.3 km/h 11.3 km/h 33 % 0.0 mm
12:58 30.1 °C 12.1 °C 1019.9 hPa West 9.3 km/h 10.8 km/h 33 % 0.0 mm
13:03 29.8 °C 12.2 °C 1019.9 hPa West 14.8 km/h 14.8 km/h 34 % 0.0 mm
13:08 30.1 °C 12.1 °C 1019.9 hPa SW 11.1 km/h 11.1 km/h 33 % 0.0 mm
13:13 29.7 °C 12.2 °C 1019.9 hPa SSW 20.4 km/h 20.4 km/h 34 % 0.0 mm
13:18 29.8 °C 12.2 °C 1019.9 hPa SW 14.8 km/h 14.8 km/h 34 % 0.0 mm
13:23 29.8 °C 12.2 °C 1019.9 hPa WSW 13.0 km/h 13.0 km/h 34 % 0.0 mm
13:28 30.0 °C 11.9 °C 1019.9 hPa WSW 14.8 km/h 14.8 km/h 33 % 0.0 mm
13:33 30.0 °C 11.5 °C 1019.9 hPa WSW 13.0 km/h 13.0 km/h 32 % 0.0 mm
13:38 30.5 °C 11.9 °C 1019.9 hPa SSW 13.0 km/h 13.0 km/h 32 % 0.0 mm
13:43 30.5 °C 11.9 °C 1019.9 hPa WSW 13.0 km/h 13.0 km/h 32 % 0.0 mm
13:48 30.3 °C 11.8 °C 1019.9 hPa WSW 14.8 km/h 14.8 km/h 32 % 0.0 mm
13:53 30.4 °C 11.4 °C 1019.9 hPa SSW 20.4 km/h 20.4 km/h 31 % 0.0 mm
13:58 30.3 °C 11.3 °C 1019.9 hPa WSW 14.8 km/h 14.8 km/h 31 % 0.0 mm
14:03 30.7 °C 11.6 °C 1019.9 hPa SW 14.8 km/h 14.8 km/h 31 % 0.0 mm
14:08 30.7 °C 11.6 °C 1019.9 hPa WSW 11.1 km/h 11.1 km/h 31 % 0.0 mm
14:13 30.6 °C 11.1 °C 1020.9 hPa WSW 14.8 km/h 14.8 km/h 30 % 0.0 mm
14:18 30.7 °C 11.1 °C 1020.9 hPa SSW 18.5 km/h 18.5 km/h 30 % 0.0 mm
14:23 30.6 °C 11.1 °C 1020.9 hPa SW 16.7 km/h 16.7 km/h 30 % 0.0 mm
14:28 30.5 °C 10.9 °C 1019.9 hPa SW 9.3 km/h 9.7 km/h 30 % 0.0 mm
14:33 31.0 °C 11.4 °C 1019.9 hPa SW 14.8 km/h 14.8 km/h 30 % 0.0 mm
14:38 31.2 °C 11.1 °C 1019.9 hPa South 13.0 km/h 13.0 km/h 29 % 0.0 mm
14:43 31.2 °C 11.1 °C 1019.9 hPa West 9.3 km/h 9.3 km/h 29 % 0.0 mm
14:48 31.7 °C 10.9 °C 1019.9 hPa SSW 9.3 km/h 9.3 km/h 28 % 0.0 mm
14:53 32.0 °C 10.7 °C 1019.9 hPa South 13.0 km/h 13.0 km/h 27 % 0.0 mm
14:58 31.9 °C 11.1 °C 1019.9 hPa SW 13.0 km/h 13.0 km/h 28 % 0.0 mm
15:03 31.9 °C 11.1 °C 1019.9 hPa SW 24.1 km/h 24.1 km/h 28 % 0.0 mm
15:08 32.0 °C 10.7 °C 1019.9 hPa SW 11.4 km/h 11.4 km/h 27 % 0.0 mm
15:13 32.4 °C 11.0 °C 1019.9 hPa SW 11.1 km/h 11.1 km/h 27 % 0.0 mm
15:18 32.6 °C 10.6 °C 1019.9 hPa SSE 9.3 km/h 9.3 km/h 26 % 0.0 mm
15:23 32.4 °C 10.4 °C 1019.9 hPa SSW 9.3 km/h 9.3 km/h 26 % 0.0 mm
15:28 32.6 °C 10.6 °C 1019.9 hPa SSW 11.9 km/h 11.9 km/h 26 % 0.0 mm
15:33 32.5 °C 10.5 °C 1019.9 hPa SW 9.3 km/h 9.3 km/h 26 % 0.0 mm
15:38 32.4 °C 9.8 °C 1019.9 hPa SSW 16.7 km/h 16.7 km/h 25 % 0.0 mm
15:43 32.5 °C 10.5 °C 1019.9 hPa West 11.1 km/h 11.1 km/h 26 % 0.0 mm
15:48 32.8 °C 10.8 °C 1019.9 hPa West 11.1 km/h 11.1 km/h 26 % 0.0 mm
15:53 33.1 °C 11.0 °C 1019.9 hPa West 13.0 km/h 13.0 km/h 26 % 0.0 mm
15:58 32.6 °C 10.6 °C 1019.9 hPa WSW 20.6 km/h 20.6 km/h 26 % 0.0 mm
16:03 32.2 °C 10.3 °C 1019.9 hPa South 14.8 km/h 14.8 km/h 26 % 0.0 mm
16:08 32.2 °C 10.3 °C 1019.9 hPa SW 18.5 km/h 18.5 km/h 26 % 0.0 mm
16:13 32.3 °C 10.3 °C 1018.8 hPa SW 14.8 km/h 14.8 km/h 26 % 0.0 mm
16:18 32.0 °C 10.1 °C 1018.8 hPa SW 13.0 km/h 13.0 km/h 26 % 0.0 mm
16:23 32.2 °C 10.3 °C 1018.8 hPa SW 18.5 km/h 18.5 km/h 26 % 0.0 mm
16:28 32.1 °C 10.2 °C 1018.8 hPa West 13.0 km/h 13.0 km/h 26 % 0.0 mm
16:33 31.6 °C 9.8 °C 1018.8 hPa SSW 14.8 km/h 14.8 km/h 26 % 0.0 mm
16:38 32.4 °C 10.4 °C 1018.8 hPa SW 7.4 km/h 7.4 km/h 26 % 0.0 mm
16:43 32.3 °C 9.8 °C 1018.8 hPa WSW 18.5 km/h 18.5 km/h 25 % 0.0 mm
16:48 32.1 °C 9.6 °C 1018.8 hPa WSW 14.8 km/h 14.8 km/h 25 % 0.0 mm
16:53 32.0 °C 9.5 °C 1018.8 hPa WSW 14.8 km/h 14.8 km/h 25 % 0.0 mm
16:58 31.5 °C 9.7 °C 1018.8 hPa SW 16.7 km/h 16.7 km/h 26 % 0.0 mm
17:04 31.5 °C 9.7 °C 1018.8 hPa South 20.4 km/h 20.4 km/h 26 % 0.0 mm
17:14 31.6 °C 9.8 °C 1018.8 hPa SW 16.7 km/h 16.7 km/h 26 % 0.0 mm
17:19 31.5 °C 9.7 °C 1018.8 hPa SW 16.7 km/h 16.7 km/h 26 % 0.0 mm
17:24 31.5 °C 9.7 °C 1018.8 hPa SW 16.7 km/h 16.7 km/h 26 % 0.0 mm
17:29 31.3 °C 9.5 °C 1018.8 hPa WSW 12.2 km/h 12.2 km/h 26 % 0.0 mm
17:34 31.3 °C 9.5 °C 1018.8 hPa SSW 13.0 km/h 13.0 km/h 26 % 0.0 mm
17:39 31.3 °C 9.5 °C 1018.8 hPa SW 17.2 km/h 17.2 km/h 26 % 0.0 mm
17:44 31.2 °C 9.4 °C 1018.8 hPa SW 13.0 km/h 13.0 km/h 26 % 0.0 mm
17:49 31.2 °C 9.4 °C 1018.8 hPa SSW 14.8 km/h 14.8 km/h 26 % 0.0 mm
17:54 31.2 °C 9.4 °C 1018.8 hPa SW 7.4 km/h 7.4 km/h 26 % 0.0 mm
17:59 31.1 °C 9.3 °C 1017.8 hPa SW 14.8 km/h 14.8 km/h 26 % 0.0 mm
18:04 31.0 °C 9.8 °C 1017.8 hPa SW 14.8 km/h 14.8 km/h 27 % 0.0 mm
18:09 30.7 °C 9.6 °C 1017.8 hPa West 14.8 km/h 14.8 km/h 27 % 0.0 mm
18:14 30.6 °C 9.4 °C 1017.8 hPa SW 16.4 km/h 16.4 km/h 27 % 0.0 mm
18:19 30.3 °C 9.2 °C 1017.8 hPa SSW 9.3 km/h 10.0 km/h 27 % 0.0 mm
18:24 30.3 °C 9.2 °C 1017.8 hPa SSW 13.0 km/h 13.0 km/h 27 % 0.0 mm
18:29 30.6 °C 9.4 °C 1017.8 hPa SSW 11.1 km/h 11.1 km/h 27 % 0.0 mm
18:34 30.1 °C 8.5 °C 1017.8 hPa SW 9.3 km/h 9.3 km/h 26 % 0.0 mm
18:39 29.7 °C 8.2 °C 1017.8 hPa WSW 14.8 km/h 14.8 km/h 26 % 0.0 mm
18:44 29.5 °C 8.0 °C 1017.8 hPa SW 13.0 km/h 13.0 km/h 26 % 0.0 mm
18:49 29.3 °C 7.8 °C 1017.8 hPa WSW 13.0 km/h 13.0 km/h 26 % 0.0 mm
18:54 29.1 °C 8.2 °C 1017.8 hPa SW 13.0 km/h 13.0 km/h 27 % 0.0 mm
18:59 28.8 °C 8.4 °C 1017.8 hPa SW 9.3 km/h 9.3 km/h 28 % 0.0 mm
19:04 28.6 °C 8.3 °C 1017.8 hPa SW 9.3 km/h 9.3 km/h 28 % 0.0 mm
19:09 28.5 °C 8.2 °C 1017.8 hPa SW 9.3 km/h 9.3 km/h 28 % 0.0 mm
19:14 28.3 °C 8.1 °C 1017.8 hPa SW 9.3 km/h 9.3 km/h 28 % 0.0 mm
19:19 28.2 °C 7.9 °C 1017.8 hPa SW 9.3 km/h 9.3 km/h 28 % 0.0 mm
19:24 27.9 °C 7.7 °C 1017.8 hPa SW 9.3 km/h 9.3 km/h 28 % 0.0 mm
19:29 27.6 °C 7.4 °C 1017.8 hPa SW 9.3 km/h 9.3 km/h 28 % 0.0 mm
19:34 27.4 °C 7.3 °C 1017.8 hPa SW 9.3 km/h 9.3 km/h 28 % 0.0 mm
19:39 27.3 °C 7.7 °C 1017.8 hPa SW 9.3 km/h 9.3 km/h 29 % 0.0 mm
19:44 27.1 °C 7.6 °C 1016.8 hPa SW 9.3 km/h 9.3 km/h 29 % 0.0 mm
19:49 27.0 °C 6.9 °C 1016.8 hPa SW 9.3 km/h 9.3 km/h 28 % 0.0 mm
19:59 26.7 °C 7.2 °C 1017.8 hPa SW 9.3 km/h 9.3 km/h 29 % 0.0 mm
20:04 26.7 °C 7.2 °C 1017.8 hPa SW 9.3 km/h 9.3 km/h 29 % 0.0 mm
20:09 26.5 °C 7.0 °C 1017.8 hPa SW 9.3 km/h 9.3 km/h 29 % 0.0 mm
20:14 26.5 °C 7.0 °C 1017.8 hPa SW 9.3 km/h 9.3 km/h 29 % 0.0 mm
20:19 26.4 °C 6.9 °C 1017.8 hPa SW 9.3 km/h 9.3 km/h 29 % 0.0 mm
20:24 26.2 °C 6.8 °C 1017.8 hPa SW 9.3 km/h 9.3 km/h 29 % 0.0 mm
20:29 26.1 °C 6.7 °C 1017.8 hPa SW 9.3 km/h 9.3 km/h 29 % 0.0 mm
20:30 20.2 °C 2.9 °C 1019.9 hPa WSW 1.6 km/h 3.2 km/h 32 % 0.0 mm
20:34 25.9 °C 6.5 °C 1017.8 hPa SW 9.3 km/h 9.3 km/h 29 % 0.0 mm
20:39 25.8 °C 6.4 °C 1017.8 hPa SW 9.3 km/h 9.3 km/h 29 % 0.0 mm
20:40 20.1 °C 2.9 °C 1019.9 hPa WSW 1.6 km/h 3.2 km/h 32 % 0.0 mm
20:44 25.6 °C 6.2 °C 1017.8 hPa SW 9.3 km/h 9.3 km/h 29 % 0.0 mm
20:49 25.5 °C 6.2 °C 1017.8 hPa SW 9.3 km/h 9.3 km/h 29 % 0.0 mm
20:50 19.9 °C 3.1 °C 1019.9 hPa Calm   3.2 km/h 33 % 0.0 mm
20:54 25.3 °C 6.0 °C 1017.8 hPa SW 9.3 km/h 9.3 km/h 29 % 0.0 mm
20:59 25.1 °C 5.8 °C 1017.8 hPa SW 9.3 km/h 9.3 km/h 29 % 0.0 mm
21:00 19.8 °C 3.1 °C 1018.8 hPa Calm   3.2 km/h 33 % 0.0 mm
21:04 25.0 °C 5.7 °C 1017.8 hPa SW 9.3 km/h 9.3 km/h 29 % 0.0 mm
21:05 19.7 °C 2.9 °C 1018.8 hPa Calm     33 % 0.0 mm
21:14 24.6 °C 5.9 °C 1018.8 hPa SW 9.3 km/h 9.3 km/h 30 % 0.0 mm
21:15 19.5 °C 3.2 °C 1019.9 hPa Calm   1.6 km/h 34 % 0.0 mm
21:19 24.5 °C 5.8 °C 1018.8 hPa SW 9.3 km/h 9.3 km/h 30 % 0.0 mm
21:24 24.3 °C 5.6 °C 1018.8 hPa SW 9.3 km/h 9.3 km/h 30 % 0.0 mm
21:25 19.5 °C 3.2 °C 1019.9 hPa Calm     34 % 0.0 mm
21:29 24.2 °C 5.5 °C 1018.8 hPa SW 9.3 km/h 9.3 km/h 30 % 0.0 mm
21:34 24.0 °C 4.8 °C 1018.8 hPa SW 9.3 km/h 9.3 km/h 29 % 0.0 mm
21:35 19.4 °C 3.6 °C 1019.9 hPa Calm     35 % 0.0 mm
21:39 23.9 °C 4.8 °C 1018.8 hPa SW 9.3 km/h 9.3 km/h 29 % 0.0 mm
21:44 23.7 °C 4.6 °C 1018.8 hPa SW 9.3 km/h 9.3 km/h 29 % 0.0 mm
21:45 19.2 °C 3.3 °C 1019.9 hPa Calm   1.6 km/h 35 % 0.0 mm
21:49 23.6 °C 4.5 °C 1018.8 hPa SW 9.3 km/h 9.3 km/h 29 % 0.0 mm
21:54 23.5 °C 4.4 °C 1018.8 hPa SW 9.3 km/h 9.3 km/h 29 % 0.0 mm
21:55 18.9 °C 3.5 °C 1019.9 hPa ENE 1.6 km/h 3.2 km/h 36 % 0.0 mm
21:59 23.4 °C 4.3 °C 1018.8 hPa WSW 6.4 km/h 6.4 km/h 29 % 0.0 mm
22:04 23.3 °C 4.3 °C 1018.8 hPa SSW 9.3 km/h 9.3 km/h 29 % 0.0 mm
22:05 18.7 °C 2.9 °C 1019.9 hPa ENE 1.6 km/h 3.2 km/h 35 % 0.0 mm
22:09 23.2 °C 4.2 °C 1018.8 hPa SSW 5.6 km/h 5.6 km/h 29 % 0.0 mm
22:14 23.1 °C 4.1 °C 1018.8 hPa SW 5.8 km/h 7.6 km/h 29 % 0.0 mm
22:15 18.0 °C 2.7 °C 1019.9 hPa SW 1.6 km/h 3.2 km/h 36 % 0.0 mm
22:19 23.0 °C 4.0 °C 1018.8 hPa SW 5.8 km/h 7.6 km/h 29 % 0.0 mm
22:24 22.8 °C 4.3 °C 1018.8 hPa SW 5.8 km/h 7.6 km/h 30 % 0.0 mm
22:25 17.9 °C 3.0 °C 1019.9 hPa WSW 1.6 km/h 3.2 km/h 37 % 0.0 mm
22:29 22.7 °C 4.2 °C 1019.9 hPa SW 5.6 km/h 5.6 km/h 30 % 0.0 mm
22:34 22.7 °C 4.2 °C 1019.9 hPa SW 2.3 km/h 2.3 km/h 30 % 0.0 mm
22:35 17.9 °C 3.4 °C 1019.9 hPa Calm   3.2 km/h 38 % 0.0 mm
22:39 22.6 °C 4.1 °C 1019.9 hPa SW 2.3 km/h 2.3 km/h 30 % 0.0 mm
22:44 22.5 °C 4.1 °C 1019.9 hPa WNW 5.0 km/h 5.0 km/h 30 % 0.0 mm
22:45 18.0 °C 3.8 °C 1018.8 hPa Calm     39 % 0.0 mm
22:49 22.5 °C 4.1 °C 1019.9 hPa SSW 3.7 km/h 3.7 km/h 30 % 0.0 mm
22:54 22.4 °C 3.9 °C 1019.9 hPa WSW 1.9 km/h 2.3 km/h 30 % 0.0 mm
22:55 17.8 °C 4.0 °C 1018.8 hPa Calm   1.6 km/h 40 % 0.0 mm
22:59 22.3 °C 3.9 °C 1019.9 hPa West 2.3 km/h 2.3 km/h 30 % 0.0 mm
23:04 22.2 °C 3.8 °C 1019.9 hPa SW 3.7 km/h 3.7 km/h 30 % 0.0 mm
23:05 17.3 °C 3.9 °C 1018.8 hPa WSW 1.6 km/h 3.2 km/h 41 % 0.0 mm
23:09 22.2 °C 3.8 °C 1019.9 hPa WSW 5.0 km/h 5.0 km/h 30 % 0.0 mm
23:14 22.2 °C 3.8 °C 1019.9 hPa WSW 3.7 km/h 3.7 km/h 30 % 0.0 mm
23:15 16.8 °C 3.8 °C 1018.8 hPa WSW 1.6 km/h 3.2 km/h 42 % 0.0 mm
23:19 22.1 °C 3.7 °C 1019.9 hPa SW 3.7 km/h 3.7 km/h 30 % 0.0 mm
23:24 22.0 °C 3.6 °C 1019.9 hPa WSW 2.6 km/h 2.6 km/h 30 % 0.0 mm
23:25 16.7 °C 5.0 °C 1018.8 hPa Calm   3.2 km/h 46 % 0.0 mm
23:29 22.0 °C 3.6 °C 1019.9 hPa WSW 5.6 km/h 5.6 km/h 30 % 0.0 mm
23:34 21.9 °C 3.6 °C 1019.9 hPa WSW 3.7 km/h 3.9 km/h 30 % 0.0 mm
23:35 17.0 °C 5.3 °C 1019.9 hPa NW 3.2 km/h 3.2 km/h 46 % 0.0 mm
23:40 21.8 °C 3.4 °C 1019.9 hPa WSW 1.6 km/h 3.2 km/h 30 % 0.0 mm
23:45 21.7 °C 3.3 °C 1019.9 hPa WNW 3.7 km/h 3.7 km/h 30 % 0.0 mm
23:50 21.6 °C 3.3 °C 1019.9 hPa West 3.7 km/h 3.7 km/h 30 % 0.0 mm
23:55 21.5 °C 3.2 °C 1019.9 hPa West 4.2 km/h 4.2 km/h 30 % 0.0 mm
Meteo Sesrovires
Elogis d' Weather Underground - 3.5 mb

Guio original per  Jim McMurry - jmcmurry@mwt.net Adaptat per a la plantilla per  Wim van der Kuil - Leuven-Template.eu

Trobareu la nostra informacio del temps tambe a:

Weather Underground

AWEKAS